Flight Track Log - Related Links

Times and Time Zones

All times are in EDT time to prevent confusion due to time zone crossing. See the KAL894 flight status page for this flight to view local times or setup timezone preferences in your user account.

Time Position Orientation Groundspeed Altitude Reporting Facility
EDT Latitude Longitude Course Direction KTS MPH feet Rate Location/Type
Sun 11:44:54 PM 31.3130 121.8380 North 279 321 6,800  Level FlightAware ADS-B
Sun 11:45:34 PM 31.3600 121.8490 11° North 285 328 8,700 2,836 Climbing FlightAware ADS-B
Sun 11:45:49 PM 31.3770 121.8650 39° Northeast 300 345 9,400 3,200 Climbing FlightAware ADS-B
Sun 11:46:04 PM 31.3920 121.8920 57° Northeast 315 362 10,300 1,821 Climbing FlightAware ADS-B
Sun 11:46:45 PM 31.4240 121.9560 60° Northeast 364 419 11,100 1,765 Climbing FlightAware ADS-B
Sun 11:47:29 PM 31.4640 122.0370 60° Northeast 389 448 12,800 2,143 Climbing FlightAware ADS-B
Sun 11:48:09 PM 31.5000 122.1110 60° Northeast 394 453 14,100 1,950 Climbing FlightAware ADS-B
Sun 11:48:49 PM 31.5320 122.1780 61° Northeast 401 461 15,400 932 Climbing FlightAware ADS-B
Sun 11:49:52 PM 31.5860 122.2900 60° Northeast 401 461 15,700 182 Climbing FlightAware ADS-B
Sun 11:50:28 PM 31.6130 122.3480 61° Northeast 401 461 15,700  Level FlightAware ADS-B
Sun 11:50:44 PM 31.6310 122.4130 72° East 412 474 15,700  Level FlightAware ADS-B
Sun 11:51:19 PM 31.6400 122.4870 82° East 414 476 15,700 424 Level FlightAware ADS-B
Sun 11:52:09 PM 31.6550 122.5970 81° East 417 480 16,300 404 Climbing FlightAware ADS-B
Sun 11:52:48 PM 31.6650 122.6710 81° East 417 480 16,300 1,309 Level FlightAware ADS-B
Sun 11:53:59 PM 31.6890 122.8530 81° East 437 503 18,700 993 Climbing FlightAware ADS-B
Sun 11:55:13 PM 31.7100 123.0070 81° East 433 498 18,700 1,266 Level FlightAware ADS-B
Sun 11:56:07 PM 31.7280 123.1410 81° East 433 498 21,400 1,800 Climbing FlightAware ADS-B
Sun 11:56:43 PM 31.7370 123.2120 82° East 433 498 21,400  Level FlightAware ADS-B
Sun 11:57:32 PM 31.7500 123.3090 81° East 433 498 21,400  Level FlightAware ADS-B
Sun 11:58:10 PM 31.7600 123.3840 81° East 433 498 21,400  Level FlightAware ADS-B
Sun 11:58:47 PM 31.7700 123.4570 81° East 433 498 21,400  Level FlightAware ADS-B
Sun 11:59:36 PM 31.7830 123.5540 81° East 433 498 21,400 1,741 Level FlightAware ADS-B
Mon 12:02:00 AM 31.9370 123.6271 22° Northeast  Level Estimated
Mon 12:02:00 AM 31.7710 123.9400 22° Northeast 477 549 27,000  Level FlightAware ADS-B
Mon 12:02:33 AM 31.7870 124.0460 80° East 476 548 27,000  Level FlightAware ADS-B
Mon 12:03:23 AM 31.8030 124.1550 80° East 476 548 27,000  Level FlightAware ADS-B
Mon 12:03:59 AM 31.8150 124.2330 80° East 476 548 27,000  Level FlightAware ADS-B
Mon 12:04:47 AM 31.8300 124.3370 80° East 476 548 27,000  Level FlightAware ADS-B
Mon 12:05:24 AM 31.8420 124.4170 80° East 476 548 27,000  Level FlightAware ADS-B
Mon 12:06:11 AM 31.8580 124.5190 80° East 476 548 27,000  Level FlightAware ADS-B
Mon 12:08:00 AM 31.9792 124.5580 15° North  Level Estimated
Mon 12:09:00 AM 32.0460 124.5795 15° North  Level Estimated
Mon 12:10:00 AM 32.1127 124.6011 15° North  Level Estimated
Mon 12:11:00 AM 32.1794 124.6227 15° North  Level Estimated
Mon 12:12:00 AM 32.2461 124.6443 15° North  Level Estimated
Mon 12:13:00 AM 32.3129 124.6659 15° North  Level Estimated
Mon 12:14:00 AM 32.3796 124.6876 15° North  Level Estimated
Mon 12:15:00 AM 32.4463 124.7093 15° North  Level Estimated
Mon 12:16:00 AM 32.5130 124.7310 15° North  Level Estimated
Mon 12:17:00 AM 32.5797 124.7528 15° North  Level Estimated
Mon 12:18:00 AM 32.6464 124.7746 15° North  Level Estimated
Mon 12:19:00 AM 32.7131 124.7965 15° North  Level Estimated
Mon 12:20:00 AM 32.7804 124.8185 15° North  Level Estimated
Mon 12:21:00 AM 32.8477 124.8407 15° North  Level Estimated
Mon 12:22:00 AM 32.9150 124.8628 15° North  Level Estimated
Mon 12:23:00 AM 32.9823 124.8850 15° North  Level Estimated
Mon 12:24:00 AM 33.0496 124.9072 15° North  Level Estimated
Mon 12:25:00 AM 33.1169 124.9294 15° North  Level Estimated
Mon 12:26:00 AM 33.1842 124.9517 15° North  Level Estimated
Mon 12:27:00 AM 33.2515 124.9740 15° North  Level Estimated
Mon 12:28:00 AM 33.3188 124.9964 16° North  Level Estimated
Mon 12:29:00 AM 33.3861 125.0188 16° North  Level Estimated
Mon 12:30:00 AM 33.4534 125.0412 16° North  Level Estimated
Mon 12:31:00 AM 33.5207 125.0636 16° North  Level Estimated
Mon 12:32:00 AM 33.5879 125.0861 16° North  Level Estimated
Mon 12:33:00 AM 33.6552 125.1086 16° North  Level Estimated
Mon 12:34:00 AM 33.7225 125.1312 16° North  Level Estimated
Mon 12:35:00 AM 33.7897 125.1538 16° North  Level Estimated
Mon 12:36:00 AM 33.8570 125.1764 16° North  Level Estimated
Mon 12:37:00 AM 33.9242 125.1991 16° North  Level Estimated
Mon 12:38:00 AM 33.9915 125.2218 16° North  Level Estimated
Mon 12:39:00 AM 34.0587 125.2445 16° North  Level Estimated
Mon 12:40:00 AM 34.1260 125.2673 16° North  Level Estimated
Mon 12:41:00 AM 34.1932 125.2901 16° North  Level Estimated
Mon 12:42:00 AM 34.2604 125.3129 16° North  Level Estimated
Mon 12:43:00 AM 34.3276 125.3358 16° North  Level Estimated
Mon 12:44:00 AM 34.3949 125.3587 16° North  Level Estimated
Mon 12:45:00 AM 34.4621 125.3817 16° North  Level Estimated
Mon 12:46:00 AM 34.5293 125.4047 16° North  Level Estimated
Mon 12:47:00 AM 34.5965 125.4277 16° North  Level Estimated
Mon 12:48:00 AM 34.6637 125.4508 16° North  Level Estimated
Mon 12:49:00 AM 34.7309 125.4739 16° North  Level Estimated
Mon 12:50:00 AM 34.7981 125.4970 16° North  Level Estimated
Mon 12:51:00 AM 34.8653 125.5202 16° North  Level Estimated
Mon 12:52:00 AM 34.9325 125.5434 16° North  Level Estimated
Mon 12:53:00 AM 34.9997 125.5667 16° North  Level Estimated
Mon 12:54:00 AM 35.0668 125.5900 16° North  Level Estimated
Mon 12:55:00 AM 35.1340 125.6133 16° North  Level Estimated
Mon 12:56:00 AM 35.2012 125.6367 16° North  Level Estimated
Mon 12:57:00 AM 35.2683 125.6601 16° North  Level Estimated
Mon 12:58:00 AM 35.3355 125.6835 16° North  Level Estimated
Mon 12:59:00 AM 35.4027 125.7070 16° North  Level Estimated
Mon 01:00:00 AM 35.4698 125.7306 16° North  Level Estimated
Mon 01:01:00 AM 35.5370 125.7541 16° North  Level Estimated
Mon 01:02:00 AM 35.6041 125.7777 16° North  Level Estimated
Mon 01:03:00 AM 35.6712 125.8014 16° North  Level Estimated
Mon 01:04:00 AM 35.7384 125.8250 16° North  Level Estimated
Mon 01:05:00 AM 35.8055 125.8488 16° North  Level Estimated
Mon 01:06:00 AM 35.8726 125.8725 16° North  Level Estimated
Mon 01:07:00 AM 35.9398 125.8963 16° North  Level Estimated
Mon 01:08:00 AM 36.0069 125.9202 16° North  Level Estimated
Mon 01:09:00 AM 36.0740 125.9441 16° North  Level Estimated
Mon 01:10:00 AM 36.1411 125.9680 16° North  Level Estimated
Mon 01:11:00 AM 36.2082 125.9920 16° North  Level Estimated
Mon 01:12:00 AM 36.2753 126.0160 16° North  Level Estimated
Mon 01:13:00 AM 36.3424 126.0400 16° North  Level Estimated
Mon 01:14:00 AM 36.4095 126.0641 16° North  Level Estimated
Mon 01:15:00 AM 36.4765 126.0882 16° North  Level Estimated
Mon 01:16:00 AM 36.5436 126.1124 16° North  Level Estimated
Mon 01:17:00 AM 36.6107 126.1366 16° North  Level Estimated
Mon 01:18:00 AM 36.6777 126.1609 16° North  Level Estimated
Mon 01:19:00 AM 36.7448 126.1852 16° North  Level Estimated
Mon 01:20:00 AM 36.8119 126.2095 16° North  Level Estimated
Mon 01:21:00 AM 36.8789 126.2339 16° North  Level Estimated
Mon 01:22:00 AM 36.9460 126.2583 16° North  Level Estimated

Login

Don't have an account? Register now (free) for customized features, flight alerts, and more!